Pine Springs, Minnesota
Current Conditions -  °F | °C
As of 10:31 AM on Saturday 22 Nov 2014 (Local Time) from K21D Reporting Station
Haze Haze  
Wind Chill: 29°   Ceiling: 600
Heat Index: 36°   Visibility: 3mi
Dew Point: 34°   Wind: 9mph
Humidity: 93%   Direction: 210°SSW
Pressure: 29.76"   Gusts: NA
Location:  44.9915°N, 92.9659°W
Report Text: K21D 221631Z AUTO 21008KT 3SM BR OVC006 02/01 A2976 RMK AO2
Loading
Personal Weather Stations






























Interactive Weather Map New forecast layout! Learn more

10-Day Weather Forecast

Advertisements
Track Severe Weather on mobile